createdAt,value
2023-01-25T00:00:44.540Z,1.10
2023-01-25T00:03:11.423Z,1.10
2023-01-25T00:05:38.356Z,1.10
2023-01-25T00:08:05.484Z,1.10
2023-01-25T00:10:32.236Z,1.00
2023-01-25T00:12:59.010Z,1.00
2023-01-25T00:15:25.804Z,1.00
2023-01-25T00:17:52.645Z,1.10
2023-01-25T00:20:19.487Z,1.00
2023-01-25T00:22:46.246Z,1.10
2023-01-25T00:25:13.061Z,1.10
2023-01-25T00:27:40.382Z,1.10
2023-01-25T00:30:07.840Z,1.10
2023-01-25T00:33:15.865Z,1.10
2023-01-25T00:35:45.072Z,1.10
2023-01-25T00:38:29.920Z,1.10
2023-01-25T00:40:57.884Z,1.10
2023-01-25T00:43:24.794Z,1.00
2023-01-25T00:45:51.613Z,1.10
2023-01-25T00:48:18.459Z,1.10
2023-01-25T00:50:45.237Z,1.10
2023-01-25T00:53:12.017Z,1.10
2023-01-25T00:55:38.798Z,1.10
2023-01-25T00:58:05.566Z,1.10
2023-01-25T01:00:32.302Z,1.10
2023-01-25T01:02:59.217Z,1.10
2023-01-25T01:05:27.506Z,1.10
2023-01-25T01:07:56.344Z,1.10
2023-01-25T01:10:23.139Z,1.20
2023-01-25T01:12:51.025Z,1.10
2023-01-25T01:15:17.824Z,1.10
2023-01-25T01:17:44.584Z,1.10
2023-01-25T01:20:11.820Z,1.10
2023-01-25T01:22:38.624Z,1.10
2023-01-25T01:25:06.689Z,1.10
2023-01-25T01:27:33.531Z,1.10
2023-01-25T01:30:00.309Z,1.10
2023-01-25T01:32:27.234Z,1.10
2023-01-25T01:34:54.093Z,1.10
2023-01-25T01:37:20.857Z,1.10
2023-01-25T01:39:47.743Z,1.10
2023-01-25T01:42:14.560Z,1.10
2023-01-25T01:44:53.037Z,1.20
2023-01-25T01:47:28.479Z,1.10
2023-01-25T01:50:01.499Z,1.10
2023-01-25T01:52:33.424Z,1.10
2023-01-25T01:55:08.418Z,1.20
2023-01-25T01:57:43.409Z,1.20
2023-01-25T02:00:23.240Z,1.10
2023-01-25T02:02:51.552Z,1.20
2023-01-25T02:05:40.800Z,1.20
2023-01-25T02:08:11.172Z,1.20
2023-01-25T02:10:39.703Z,1.20
2023-01-25T02:13:06.489Z,1.20
2023-01-25T02:15:47.760Z,1.20
2023-01-25T02:18:15.807Z,1.20
2023-01-25T02:20:45.134Z,1.20
2023-01-25T02:23:48.651Z,1.20
2023-01-25T02:26:17.271Z,1.20
2023-01-25T02:28:47.565Z,1.20
2023-01-25T02:31:14.565Z,1.20
2023-01-25T02:33:41.403Z,1.20
2023-01-25T02:36:08.102Z,1.20
2023-01-25T02:38:38.959Z,1.30
2023-01-25T02:41:17.702Z,1.20
2023-01-25T02:43:44.653Z,1.30
2023-01-25T02:46:27.477Z,1.30
2023-01-25T02:48:56.438Z,1.20
2023-01-25T02:51:25.246Z,1.30
2023-01-25T02:53:52.702Z,1.20
2023-01-25T02:56:19.634Z,1.30
2023-01-25T02:58:46.898Z,1.30
2023-01-25T03:01:14.144Z,1.30
2023-01-25T03:03:41.235Z,1.30
2023-01-25T03:06:08.528Z,1.30
2023-01-25T03:08:35.534Z,1.30
2023-01-25T03:11:04.566Z,1.30
2023-01-25T03:13:33.998Z,1.30
2023-01-25T03:16:12.739Z,1.30
2023-01-25T03:18:40.370Z,1.30
2023-01-25T03:21:17.236Z,1.30
2023-01-25T03:23:44.934Z,1.30
2023-01-25T03:26:17.425Z,1.30
2023-01-25T03:28:44.606Z,1.30
2023-01-25T03:31:13.689Z,1.30
2023-01-25T03:33:40.951Z,1.30
2023-01-25T03:36:08.429Z,1.30
2023-01-25T03:38:35.475Z,1.20
2023-01-25T03:41:02.996Z,1.30
2023-01-25T03:43:29.947Z,1.30
2023-01-25T03:45:58.959Z,1.20
2023-01-25T03:48:27.009Z,1.30
2023-01-25T03:50:56.510Z,1.30
2023-01-25T03:53:33.915Z,1.30
2023-01-25T03:56:03.056Z,1.30
2023-01-25T03:58:31.189Z,1.30
2023-01-25T04:01:00.486Z,1.30
2023-01-25T04:03:30.191Z,1.30
2023-01-25T04:05:58.455Z,1.30
2023-01-25T04:08:26.662Z,1.20
2023-01-25T04:11:06.020Z,1.20
2023-01-25T04:13:35.323Z,1.20
2023-01-25T04:16:03.132Z,1.20
2023-01-25T04:18:29.848Z,1.30
2023-01-25T04:20:57.495Z,1.30
2023-01-25T04:23:25.472Z,1.30
2023-01-25T04:26:01.034Z,1.20
2023-01-25T04:28:28.593Z,1.20
2023-01-25T04:30:56.860Z,1.20
2023-01-25T04:33:23.900Z,1.20
2023-01-25T04:35:50.719Z,1.20
2023-01-25T04:38:17.475Z,1.30
2023-01-25T04:40:44.811Z,1.30
2023-01-25T04:43:13.597Z,1.20
2023-01-25T04:45:40.534Z,1.20
2023-01-25T04:48:12.363Z,1.20
2023-01-25T04:50:40.978Z,1.20
2023-01-25T04:53:09.079Z,1.20
2023-01-25T04:55:36.015Z,1.20
2023-01-25T04:58:03.593Z,1.20
2023-01-25T05:00:31.221Z,1.20
2023-01-25T05:02:58.131Z,1.20
2023-01-25T05:05:25.018Z,1.30
2023-01-25T05:07:51.757Z,1.20
2023-01-25T05:10:18.675Z,1.20
2023-01-25T05:12:45.548Z,1.30
2023-01-25T05:15:12.581Z,1.30
2023-01-25T05:17:39.614Z,1.30
2023-01-25T05:20:06.716Z,1.30
2023-01-25T05:22:33.502Z,1.20
2023-01-25T05:25:01.914Z,1.20
2023-01-25T05:27:28.717Z,1.20
2023-01-25T05:29:56.130Z,1.20
2023-01-25T05:32:23.853Z,1.20
2023-01-25T05:34:50.827Z,1.20
2023-01-25T05:37:20.291Z,1.20
2023-01-25T05:39:47.311Z,1.20
2023-01-25T05:42:16.889Z,1.30
2023-01-25T05:44:47.599Z,1.20
2023-01-25T05:47:16.825Z,1.30
2023-01-25T05:49:44.506Z,1.30
2023-01-25T05:52:14.879Z,1.30
2023-01-25T05:54:43.884Z,1.30
2023-01-25T05:57:10.879Z,1.30
2023-01-25T05:59:37.642Z,1.30
2023-01-25T06:02:04.389Z,1.20
2023-01-25T06:04:31.181Z,1.20
2023-01-25T06:06:58.003Z,1.20
2023-01-25T06:09:26.436Z,1.20
2023-01-25T06:11:53.253Z,1.20
2023-01-25T06:14:20.079Z,1.20
2023-01-25T06:16:46.813Z,1.20
2023-01-25T06:19:14.071Z,1.20
2023-01-25T06:21:46.138Z,1.30
2023-01-25T06:24:14.092Z,1.20
2023-01-25T06:26:40.818Z,1.30
2023-01-25T06:29:07.864Z,1.20
2023-01-25T06:31:35.059Z,1.20
2023-01-25T06:34:04.533Z,1.20
2023-01-25T06:36:31.377Z,1.20
2023-01-25T06:38:58.395Z,1.20
2023-01-25T06:41:25.931Z,1.30
2023-01-25T06:43:53.500Z,1.20
2023-01-25T06:46:20.430Z,1.20
2023-01-25T06:48:47.342Z,1.20
2023-01-25T06:51:15.076Z,1.30
2023-01-25T06:53:44.525Z,1.30
2023-01-25T06:56:29.348Z,1.30
2023-01-25T06:58:56.105Z,1.20
2023-01-25T07:01:27.485Z,1.20
2023-01-25T07:03:56.440Z,1.20
2023-01-25T07:06:24.692Z,1.10
2023-01-25T07:08:51.651Z,1.20
2023-01-25T07:11:19.161Z,1.10
2023-01-25T07:13:47.668Z,1.20
2023-01-25T07:16:18.893Z,1.10
2023-01-25T07:18:46.105Z,1.10
2023-01-25T07:21:16.037Z,1.00
2023-01-25T07:23:42.899Z,0.90
2023-01-25T07:26:18.870Z,1.00
2023-01-25T07:28:47.258Z,1.00
2023-01-25T07:31:15.303Z,1.00
2023-01-25T07:33:42.188Z,1.00
2023-01-25T07:36:10.902Z,1.00
2023-01-25T07:38:38.179Z,1.00
2023-01-25T07:41:05.146Z,1.00
2023-01-25T07:43:32.259Z,0.90
2023-01-25T07:46:08.193Z,0.90
2023-01-25T07:48:35.020Z,0.90
2023-01-25T07:51:12.527Z,0.90
2023-01-25T07:53:40.755Z,0.90
2023-01-25T07:56:09.352Z,0.90
2023-01-25T07:58:36.151Z,0.90
2023-01-25T08:01:10.734Z,0.90
2023-01-25T08:03:37.576Z,1.00
2023-01-25T08:06:07.794Z,1.00
2023-01-25T08:08:36.263Z,1.00
2023-01-25T08:11:20.276Z,1.00
2023-01-25T08:13:49.689Z,1.00
2023-01-25T08:16:18.564Z,1.00
2023-01-25T08:18:56.040Z,1.00
2023-01-25T08:21:29.968Z,0.90
2023-01-25T08:24:02.477Z,0.90
2023-01-25T08:26:29.389Z,0.90
2023-01-25T08:29:06.294Z,0.90
2023-01-25T08:31:35.267Z,0.80
2023-01-25T08:34:02.460Z,0.80
2023-01-25T08:36:29.708Z,0.80
2023-01-25T08:39:01.607Z,0.80
2023-01-25T08:41:30.208Z,0.80
2023-01-25T08:43:57.426Z,0.80
2023-01-25T08:46:27.230Z,0.80
2023-01-25T08:48:56.335Z,0.80
2023-01-25T08:51:24.550Z,0.80
2023-01-25T08:53:51.323Z,0.80
2023-01-25T08:56:18.150Z,0.70
2023-01-25T08:58:46.840Z,0.80
2023-01-25T09:01:15.688Z,0.80
2023-01-25T09:03:45.115Z,0.70
2023-01-25T09:06:12.915Z,0.70
2023-01-25T09:08:40.158Z,0.70
2023-01-25T09:11:15.400Z,0.70
2023-01-25T09:13:45.478Z,0.80
2023-01-25T09:16:15.617Z,0.70
2023-01-25T09:18:44.326Z,0.70
2023-01-25T09:21:13.725Z,0.70
2023-01-25T09:23:50.526Z,0.70
2023-01-25T09:26:18.733Z,0.60
2023-01-25T09:28:50.452Z,0.60
2023-01-25T09:31:22.292Z,0.60
2023-01-25T09:33:51.669Z,0.60
2023-01-25T09:36:19.045Z,0.60
2023-01-25T09:38:45.953Z,0.60
2023-01-25T09:41:44.740Z,0.60
2023-01-25T09:44:24.186Z,0.60
2023-01-25T09:46:55.252Z,0.60
2023-01-25T09:49:52.665Z,0.50
2023-01-25T09:52:59.215Z,0.60
2023-01-25T09:55:29.712Z,0.60
2023-01-25T09:58:00.319Z,0.70
2023-01-25T10:00:42.046Z,0.70
2023-01-25T10:03:27.348Z,0.70
2023-01-25T10:05:58.773Z,0.70
2023-01-25T10:08:34.494Z,0.70
2023-01-25T10:11:24.799Z,0.80
2023-01-25T10:13:51.854Z,0.90
2023-01-25T10:16:35.905Z,0.80
2023-01-25T10:19:15.657Z,0.80
2023-01-25T10:21:44.171Z,0.70
2023-01-25T10:24:31.983Z,0.70
2023-01-25T10:27:23.084Z,0.80
2023-01-25T10:29:52.250Z,0.90
2023-01-25T10:32:31.930Z,0.90
2023-01-25T10:35:17.417Z,0.90
2023-01-25T10:37:46.921Z,1.00
2023-01-25T10:40:23.973Z,0.90
2023-01-25T10:42:56.263Z,0.90
2023-01-25T10:45:23.050Z,0.90
2023-01-25T10:48:03.504Z,0.90
2023-01-25T10:50:42.212Z,0.90
2023-01-25T10:53:29.273Z,1.00
2023-01-25T10:56:11.341Z,1.00
2023-01-25T10:58:39.482Z,0.90
2023-01-25T11:01:09.497Z,1.00
2023-01-25T11:03:42.199Z,0.90
2023-01-25T11:06:09.578Z,0.90
2023-01-25T11:08:39.445Z,0.90
2023-01-25T11:11:38.253Z,0.80
2023-01-25T11:14:17.537Z,0.90
2023-01-25T11:16:49.899Z,1.00
2023-01-25T11:19:33.435Z,1.00
2023-01-25T11:22:02.309Z,1.00
2023-01-25T11:24:31.742Z,1.10
2023-01-25T11:27:21.895Z,1.10
2023-01-25T11:30:12.711Z,1.10
2023-01-25T11:32:40.298Z,1.10
2023-01-25T11:35:17.966Z,1.00
2023-01-25T11:38:05.931Z,0.90
2023-01-25T11:40:44.354Z,0.90
2023-01-25T11:43:11.029Z,0.90
2023-01-25T11:45:46.733Z,0.90
2023-01-25T11:48:43.420Z,0.90
2023-01-25T11:51:14.055Z,0.90
2023-01-25T11:53:43.551Z,1.00
2023-01-25T11:56:15.568Z,1.00
2023-01-25T11:58:53.589Z,1.10
2023-01-25T12:01:48.202Z,1.10
2023-01-25T12:04:41.778Z,1.00
2023-01-25T12:07:41.142Z,1.00
2023-01-25T12:10:38.872Z,0.90
2023-01-25T12:13:47.453Z,0.90
2023-01-25T12:16:41.953Z,0.80
2023-01-25T12:19:34.376Z,0.80
2023-01-25T12:22:24.081Z,0.70
2023-01-25T12:25:18.534Z,0.70
2023-01-25T12:27:51.405Z,0.80
2023-01-25T12:30:44.385Z,0.80
2023-01-25T12:34:07.748Z,0.90
2023-01-25T12:36:44.914Z,0.90
2023-01-25T12:39:38.177Z,1.00
2023-01-25T12:42:20.499Z,1.00
2023-01-25T12:44:54.796Z,1.00
2023-01-25T12:47:32.948Z,0.90
2023-01-25T12:50:13.533Z,0.90
2023-01-25T12:53:07.059Z,0.70
2023-01-25T12:55:33.861Z,0.80
2023-01-25T12:58:06.997Z,0.80
2023-01-25T13:00:57.577Z,0.90
2023-01-25T13:03:29.720Z,0.80
2023-01-25T13:06:31.848Z,0.80
2023-01-25T13:09:20.299Z,0.80
2023-01-25T13:11:48.333Z,0.80
2023-01-25T13:14:18.146Z,0.90
2023-01-25T13:17:12.917Z,0.90
2023-01-25T13:19:42.287Z,0.90
2023-01-25T13:22:13.505Z,0.80
2023-01-25T13:25:22.923Z,0.80
2023-01-25T13:27:49.977Z,0.80
2023-01-25T13:30:16.666Z,0.80
2023-01-25T13:32:49.459Z,0.70
2023-01-25T13:35:40.992Z,0.80
2023-01-25T13:38:32.266Z,0.70
2023-01-25T13:41:18.062Z,0.70
2023-01-25T13:43:48.025Z,0.60
2023-01-25T13:46:18.822Z,0.70
2023-01-25T13:49:01.930Z,0.60
2023-01-25T13:51:33.887Z,0.60
2023-01-25T13:54:00.846Z,0.60
2023-01-25T13:56:35.375Z,0.60
2023-01-25T13:59:02.306Z,0.60
2023-01-25T14:01:32.064Z,0.70
2023-01-25T14:04:02.257Z,0.60
2023-01-25T14:06:38.639Z,0.70
2023-01-25T14:09:20.720Z,0.70
2023-01-25T14:12:00.499Z,0.80
2023-01-25T14:14:28.810Z,0.70
2023-01-25T14:17:23.405Z,0.80
2023-01-25T14:19:55.395Z,0.80
2023-01-25T14:22:49.173Z,0.70
2023-01-25T14:25:18.550Z,0.80
2023-01-25T14:27:54.337Z,0.80
2023-01-25T14:30:27.872Z,0.80
2023-01-25T14:32:57.430Z,0.90
2023-01-25T14:35:42.351Z,0.80
2023-01-25T14:38:26.568Z,0.80
2023-01-25T14:41:06.596Z,0.70
2023-01-25T14:43:35.937Z,0.70
2023-01-25T14:46:19.086Z,0.70
2023-01-25T14:48:47.100Z,0.70
2023-01-25T14:51:32.752Z,0.70
2023-01-25T14:54:05.887Z,0.70
2023-01-25T14:56:45.343Z,0.70
2023-01-25T14:59:24.747Z,0.70
2023-01-25T15:01:54.359Z,0.60
2023-01-25T15:04:21.287Z,0.60
2023-01-25T15:06:50.552Z,0.70
2023-01-25T15:09:42.933Z,0.70
2023-01-25T15:12:15.699Z,0.70
2023-01-25T15:14:50.953Z,0.60
2023-01-25T15:17:38.252Z,0.60
2023-01-25T15:20:05.658Z,0.60
2023-01-25T15:22:32.433Z,0.60
2023-01-25T15:24:59.184Z,0.60
2023-01-25T15:27:25.975Z,0.50
2023-01-25T15:29:52.756Z,0.50
2023-01-25T15:32:21.589Z,0.50
2023-01-25T15:34:48.682Z,0.50
2023-01-25T15:37:15.520Z,0.50
2023-01-25T15:39:42.305Z,0.50
2023-01-25T15:42:09.735Z,0.50
2023-01-25T15:44:36.529Z,0.60
2023-01-25T15:47:03.322Z,0.50
2023-01-25T15:49:31.707Z,0.60
2023-01-25T15:51:58.764Z,0.60
2023-01-25T15:54:26.427Z,0.50
2023-01-25T15:56:57.013Z,0.50
2023-01-25T15:59:24.365Z,0.50
2023-01-25T16:01:51.222Z,0.40
2023-01-25T16:04:18.075Z,0.50
2023-01-25T16:06:50.832Z,0.50
2023-01-25T16:09:23.699Z,0.60
2023-01-25T16:11:58.646Z,0.60
2023-01-25T16:14:30.209Z,0.60
2023-01-25T16:17:01.415Z,0.60
2023-01-25T16:19:29.757Z,0.60
2023-01-25T16:21:57.188Z,0.50
2023-01-25T16:24:24.389Z,0.60
2023-01-25T16:26:56.934Z,0.60
2023-01-25T16:29:23.952Z,0.50
2023-01-25T16:31:51.952Z,0.60
2023-01-25T16:34:20.413Z,0.50
2023-01-25T16:36:50.554Z,0.50
2023-01-25T16:39:20.975Z,0.50
2023-01-25T16:41:48.542Z,0.50
2023-01-25T16:44:15.625Z,0.50
2023-01-25T16:46:45.003Z,0.50
2023-01-25T16:49:17.134Z,0.50
2023-01-25T16:51:45.524Z,0.40
2023-01-25T16:54:12.713Z,0.50
2023-01-25T16:56:39.536Z,0.50
2023-01-25T16:59:07.223Z,0.40
2023-01-25T17:01:34.035Z,0.50
2023-01-25T17:04:00.857Z,0.40
2023-01-25T17:06:33.601Z,0.40
2023-01-25T17:09:20.533Z,0.50
2023-01-25T17:11:49.579Z,0.50
2023-01-25T17:14:18.918Z,0.40
2023-01-25T17:16:48.084Z,0.40
2023-01-25T17:19:16.917Z,0.50
2023-01-25T17:21:44.474Z,0.40
2023-01-25T17:24:14.609Z,0.40
2023-01-25T17:26:41.458Z,0.40
2023-01-25T17:29:10.177Z,0.40
2023-01-25T17:31:38.258Z,0.40
2023-01-25T17:34:08.459Z,0.40
2023-01-25T17:36:35.278Z,0.40
2023-01-25T17:39:07.293Z,0.40
2023-01-25T17:41:36.064Z,0.40
2023-01-25T17:44:02.902Z,0.40
2023-01-25T17:46:33.661Z,0.30
2023-01-25T17:49:02.221Z,0.30
2023-01-25T17:51:30.280Z,0.20
2023-01-25T17:53:57.803Z,0.20
2023-01-25T17:56:25.510Z,0.10
2023-01-25T17:58:52.736Z,0.20
2023-01-25T18:01:25.570Z,0.20
2023-01-25T18:03:54.179Z,0.30
2023-01-25T18:06:25.135Z,0.30
2023-01-25T18:08:54.900Z,0.20
2023-01-25T18:11:25.908Z,0.30
2023-01-25T18:13:55.509Z,0.30
2023-01-25T18:16:24.031Z,0.20
2023-01-25T18:18:52.607Z,0.30
2023-01-25T18:21:25.086Z,0.30
2023-01-25T18:23:56.458Z,0.30
2023-01-25T18:26:27.741Z,0.30
2023-01-25T18:28:58.503Z,0.20
2023-01-25T18:31:25.620Z,0.30
2023-01-25T18:33:52.451Z,0.30
2023-01-25T18:36:20.302Z,0.30
2023-01-25T18:38:47.084Z,0.30
2023-01-25T18:41:13.995Z,0.30
2023-01-25T18:43:40.733Z,0.20
2023-01-25T18:46:07.648Z,0.20
2023-01-25T18:48:34.548Z,0.10
2023-01-25T18:51:07.648Z,0.10
2023-01-25T18:53:36.256Z,0.10
2023-01-25T18:56:04.373Z,0.10
2023-01-25T18:58:33.271Z,0.10
2023-01-25T19:01:18.039Z,0.10
2023-01-25T19:03:46.567Z,0.20
2023-01-25T19:06:14.378Z,0.20
2023-01-25T19:08:43.022Z,0.20
2023-01-25T19:11:15.285Z,0.20
2023-01-25T19:13:43.124Z,0.10
2023-01-25T19:16:16.088Z,0.10
2023-01-25T19:18:48.156Z,0.00
2023-01-25T19:21:16.600Z,0.00
2023-01-25T19:23:43.801Z,0.00
2023-01-25T19:26:16.736Z,0.00
2023-01-25T19:28:44.157Z,0.00
2023-01-25T19:31:10.958Z,0.00
2023-01-25T19:33:38.131Z,0.00
2023-01-25T19:36:06.842Z,0.00
2023-01-25T19:38:37.507Z,0.00
2023-01-25T19:41:12.493Z,-0.10
2023-01-25T19:43:41.569Z,-0.10
2023-01-25T19:46:18.770Z,-0.10
2023-01-25T19:48:49.767Z,-0.10
2023-01-25T19:51:22.805Z,-0.10
2023-01-25T19:54:03.325Z,-0.10
2023-01-25T19:56:36.563Z,-0.20
2023-01-25T19:59:11.950Z,-0.20
2023-01-25T20:01:41.852Z,-0.20
2023-01-25T20:04:08.982Z,-0.30
2023-01-25T20:06:35.973Z,-0.30
2023-01-25T20:09:03.639Z,-0.30
2023-01-25T20:11:32.618Z,-0.40
2023-01-25T20:14:02.244Z,-0.30
2023-01-25T20:16:32.013Z,-0.40
2023-01-25T20:18:59.708Z,-0.40
2023-01-25T20:21:28.164Z,-0.40
2023-01-25T20:24:00.240Z,-0.40
2023-01-25T20:26:29.938Z,-0.40
2023-01-25T20:28:58.078Z,-0.40
2023-01-25T20:31:25.035Z,-0.40
2023-01-25T20:33:54.963Z,-0.40
2023-01-25T20:36:22.815Z,-0.40
2023-01-25T20:38:49.738Z,-0.30
2023-01-25T20:41:18.287Z,-0.30
2023-01-25T20:43:54.208Z,-0.40
2023-01-25T20:46:22.156Z,-0.40
2023-01-25T20:48:49.305Z,-0.40
2023-01-25T20:51:21.416Z,-0.50
2023-01-25T20:53:50.101Z,-0.50
2023-01-25T20:56:18.619Z,-0.50
2023-01-25T20:58:50.412Z,-0.50
2023-01-25T21:01:28.316Z,-0.50
2023-01-25T21:03:56.927Z,-0.50
2023-01-25T21:06:27.316Z,-0.50
2023-01-25T21:08:54.843Z,-0.50
2023-01-25T21:11:23.256Z,-0.60
2023-01-25T21:13:50.040Z,-0.50
2023-01-25T21:16:19.260Z,-0.50
2023-01-25T21:18:48.538Z,-0.50
2023-01-25T21:21:18.585Z,-0.50
2023-01-25T21:23:47.395Z,-0.50
2023-01-25T21:26:22.222Z,-0.60
2023-01-25T21:28:49.992Z,-0.60
2023-01-25T21:31:21.055Z,-0.60
2023-01-25T21:33:48.487Z,-0.60
2023-01-25T21:36:16.336Z,-0.70
2023-01-25T21:38:45.159Z,-0.70
2023-01-25T21:41:15.370Z,-0.80
2023-01-25T21:44:00.842Z,-0.80
2023-01-25T21:46:28.753Z,-0.80
2023-01-25T21:49:15.996Z,-0.80
2023-01-25T21:51:51.484Z,-0.80
2023-01-25T21:54:19.399Z,-0.80
2023-01-25T21:56:47.503Z,-0.70
2023-01-25T21:59:14.923Z,-0.70
2023-01-25T22:01:43.144Z,-0.70
2023-01-25T22:04:10.633Z,-0.70
2023-01-25T22:06:37.773Z,-0.70
2023-01-25T22:09:05.152Z,-0.70
2023-01-25T22:11:32.067Z,-0.70
2023-01-25T22:13:59.129Z,-0.70
2023-01-25T22:16:26.003Z,-0.80
2023-01-25T22:18:53.079Z,-0.70
2023-01-25T22:21:25.141Z,-0.70
2023-01-25T22:23:52.388Z,-0.80
2023-01-25T22:26:21.584Z,-0.80
2023-01-25T22:28:53.802Z,-0.80
2023-01-25T22:31:26.287Z,-0.80
2023-01-25T22:33:54.312Z,-0.90
2023-01-25T22:36:27.110Z,-1.00
2023-01-25T22:38:54.025Z,-0.90
2023-01-25T22:41:26.108Z,-0.90
2023-01-25T22:43:53.786Z,-1.00
2023-01-25T22:46:23.511Z,-1.00
2023-01-25T22:48:50.667Z,-0.90
2023-01-25T22:51:20.465Z,-1.00
2023-01-25T22:53:47.477Z,-0.90
2023-01-25T22:56:20.399Z,-0.90
2023-01-25T22:58:47.942Z,-0.90
2023-01-25T23:01:23.390Z,-1.00
2023-01-25T23:03:50.999Z,-1.00
2023-01-25T23:06:20.421Z,-1.00
2023-01-25T23:08:47.843Z,-1.00
2023-01-25T23:11:20.670Z,-0.90
2023-01-25T23:14:07.284Z,-1.00
2023-01-25T23:16:35.426Z,-1.10
2023-01-25T23:19:04.007Z,-1.10
2023-01-25T23:21:31.264Z,-1.00
2023-01-25T23:24:00.957Z,-1.00
2023-01-25T23:26:29.694Z,-1.10
2023-01-25T23:28:57.932Z,-1.00
2023-01-25T23:31:26.113Z,-1.10
2023-01-25T23:33:58.663Z,-1.10
2023-01-25T23:36:26.732Z,-1.10
2023-01-25T23:38:54.672Z,-1.00
2023-01-25T23:41:23.915Z,-1.10
2023-01-25T23:43:50.918Z,-1.10
2023-01-25T23:46:18.284Z,-1.10
2023-01-25T23:48:46.093Z,-1.10
2023-01-25T23:51:14.498Z,-1.00
2023-01-25T23:53:41.581Z,-1.10
2023-01-25T23:56:13.240Z,-1.10
2023-01-25T23:58:40.401Z,-1.00
